createdAt,value
2022-12-22T00:02:44.847Z,66.13
2022-12-22T00:05:36.807Z,62.28
2022-12-22T00:08:22.606Z,66.65
2022-12-22T00:11:08.397Z,65.50
2022-12-22T00:13:54.409Z,70.85
2022-12-22T00:16:40.122Z,70.65
2022-12-22T00:19:30.683Z,59.10
2022-12-22T00:22:20.400Z,57.63
2022-12-22T00:25:05.671Z,59.15
2022-12-22T00:27:50.948Z,62.92
2022-12-22T00:30:37.013Z,62.05
2022-12-22T00:33:24.052Z,66.78
2022-12-22T00:36:09.941Z,67.93
2022-12-22T00:38:57.020Z,65.90
2022-12-22T00:41:42.446Z,65.65
2022-12-22T00:44:27.686Z,69.28
2022-12-22T00:47:13.513Z,71.85
2022-12-22T00:49:59.802Z,66.22
2022-12-22T00:52:45.143Z,66.22
2022-12-22T00:55:34.270Z,65.60
2022-12-22T00:58:20.699Z,66.03
2022-12-22T01:01:05.952Z,63.47
2022-12-22T01:03:51.422Z,65.90
2022-12-22T01:06:37.064Z,70.38
2022-12-22T01:09:23.898Z,69.32
2022-12-22T01:12:11.124Z,73.95
2022-12-22T01:14:56.465Z,77.00
2022-12-22T01:17:42.235Z,71.68
2022-12-22T01:20:28.349Z,70.72
2022-12-22T01:23:14.213Z,72.28
2022-12-22T01:26:00.026Z,82.28
2022-12-22T01:28:46.942Z,69.93
2022-12-22T01:31:37.400Z,81.20
2022-12-22T01:34:23.118Z,78.95
2022-12-22T01:37:09.003Z,74.50
2022-12-22T01:39:54.465Z,68.30
2022-12-22T01:42:40.269Z,75.88
2022-12-22T01:45:38.856Z,70.40
2022-12-22T01:48:29.460Z,73.68
2022-12-22T01:51:15.539Z,73.13
2022-12-22T01:54:01.482Z,70.15
2022-12-22T01:56:47.476Z,67.05
2022-12-22T01:59:32.874Z,63.42
2022-12-22T02:02:20.689Z,63.17
2022-12-22T02:05:06.677Z,61.53
2022-12-22T02:08:03.736Z,56.60
2022-12-22T02:11:10.924Z,56.92
2022-12-22T02:14:04.332Z,61.85
2022-12-22T02:16:53.288Z,62.20
2022-12-22T02:20:01.183Z,54.28
2022-12-22T02:22:50.712Z,57.63
2022-12-22T02:25:41.520Z,53.40
2022-12-22T02:28:30.406Z,47.05
2022-12-22T02:31:17.085Z,54.90
2022-12-22T02:34:03.088Z,53.05
2022-12-22T02:36:54.157Z,51.95
2022-12-22T02:39:46.185Z,50.97
2022-12-22T02:42:36.764Z,53.20
2022-12-22T02:45:28.921Z,52.15
2022-12-22T02:48:21.305Z,53.13
2022-12-22T02:51:12.242Z,49.95
2022-12-22T02:53:58.779Z,53.20
2022-12-22T02:56:44.558Z,52.60
2022-12-22T02:59:30.343Z,52.05
2022-12-22T03:02:17.336Z,48.13
2022-12-22T03:05:02.757Z,48.30
2022-12-22T03:07:48.333Z,45.42
2022-12-22T03:10:34.302Z,44.53
2022-12-22T03:13:19.832Z,42.63
2022-12-22T03:16:05.139Z,48.65
2022-12-22T03:18:52.392Z,45.25
2022-12-22T03:21:38.381Z,42.97
2022-12-22T03:24:24.556Z,45.28
2022-12-22T03:26:52.742Z,40.03
2022-12-22T03:29:20.720Z,39.05
2022-12-22T03:31:49.188Z,42.03
2022-12-22T03:34:18.462Z,43.38
2022-12-22T03:36:46.440Z,37.90
2022-12-22T03:39:14.482Z,40.85
2022-12-22T03:42:00.375Z,43.22
2022-12-22T03:44:45.669Z,41.95
2022-12-22T03:47:14.320Z,45.75
2022-12-22T03:49:43.701Z,44.35
2022-12-22T03:52:11.680Z,41.10
2022-12-22T03:54:39.723Z,40.85
2022-12-22T03:57:07.742Z,45.70
2022-12-22T03:59:35.719Z,43.97
2022-12-22T04:02:03.878Z,45.17
2022-12-22T04:04:32.124Z,42.40
2022-12-22T04:07:01.563Z,40.45
2022-12-22T04:09:29.555Z,45.40
2022-12-22T04:12:15.179Z,42.03
2022-12-22T04:14:43.138Z,45.80
2022-12-22T04:17:11.141Z,51.13
2022-12-22T04:19:39.801Z,51.67
2022-12-22T04:22:09.270Z,52.45
2022-12-22T04:24:37.280Z,52.60
2022-12-22T04:27:05.342Z,49.92
2022-12-22T04:29:33.373Z,51.05
2022-12-22T04:32:01.445Z,57.42
2022-12-22T04:34:29.519Z,54.00
2022-12-22T04:37:04.416Z,53.35
2022-12-22T04:39:39.342Z,57.10
2022-12-22T04:42:07.276Z,56.70
2022-12-22T04:44:35.233Z,57.00
2022-12-22T04:47:03.308Z,59.50
2022-12-22T04:49:31.282Z,56.33
2022-12-22T04:51:59.476Z,57.53
2022-12-22T04:54:27.412Z,61.17
2022-12-22T04:56:56.794Z,59.53
2022-12-22T04:59:24.898Z,65.55
2022-12-22T05:01:53.282Z,59.47
2022-12-22T05:04:23.865Z,67.97
2022-12-22T05:06:52.149Z,60.65
2022-12-22T05:09:20.082Z,56.58
2022-12-22T05:11:48.102Z,70.22
2022-12-22T05:14:17.412Z,62.63
2022-12-22T05:16:45.475Z,54.80
2022-12-22T05:19:13.480Z,66.15
2022-12-22T05:21:41.531Z,62.25
2022-12-22T05:24:09.624Z,65.90
2022-12-22T05:26:37.617Z,62.60
2022-12-22T05:29:05.574Z,59.38
2022-12-22T05:31:37.747Z,54.25
2022-12-22T05:34:08.688Z,58.17
2022-12-22T05:36:36.990Z,55.60
2022-12-22T05:39:05.051Z,52.42
2022-12-22T05:41:33.017Z,61.15
2022-12-22T05:44:01.013Z,54.95
2022-12-22T05:46:29.113Z,60.60
2022-12-22T05:48:58.468Z,55.97
2022-12-22T05:51:26.455Z,58.40
2022-12-22T05:53:54.445Z,48.58
2022-12-22T05:56:22.388Z,53.70
2022-12-22T05:58:50.368Z,56.72
2022-12-22T06:01:18.330Z,53.10
2022-12-22T06:03:46.430Z,55.67
2022-12-22T06:06:16.083Z,53.00
2022-12-22T06:08:44.134Z,57.90
2022-12-22T06:11:12.099Z,50.00
2022-12-22T06:13:40.091Z,51.70
2022-12-22T06:16:08.670Z,48.80
2022-12-22T06:18:36.785Z,51.85
2022-12-22T06:21:04.917Z,51.58
2022-12-22T06:23:34.287Z,50.38
2022-12-22T06:26:05.391Z,57.25
2022-12-22T06:28:33.391Z,50.45
2022-12-22T06:31:01.528Z,53.42
2022-12-22T06:33:29.507Z,53.35
2022-12-22T06:35:59.364Z,48.85
2022-12-22T06:38:28.320Z,47.53
2022-12-22T06:40:57.966Z,46.55
2022-12-22T06:43:25.179Z,48.08
2022-12-22T06:46:13.219Z,51.88
2022-12-22T06:48:41.439Z,47.58
2022-12-22T06:51:09.451Z,47.95
2022-12-22T06:53:41.150Z,47.08
2022-12-22T06:56:10.598Z,43.63
2022-12-22T06:58:38.708Z,49.08
2022-12-22T07:01:06.912Z,45.20
2022-12-22T07:03:35.061Z,50.30
2022-12-22T07:06:03.080Z,42.92
2022-12-22T07:08:31.162Z,43.15
2022-12-22T07:10:59.153Z,54.17
2022-12-22T07:13:29.974Z,51.47
2022-12-22T07:16:01.088Z,49.05
2022-12-22T07:18:30.676Z,46.53
2022-12-22T07:20:58.853Z,36.63
2022-12-22T07:23:27.294Z,41.20
2022-12-22T07:25:55.534Z,36.58
2022-12-22T07:28:23.678Z,30.35
2022-12-22T07:30:54.144Z,33.80
2022-12-22T07:33:22.337Z,32.00
2022-12-22T07:35:50.392Z,31.88
2022-12-22T07:38:18.376Z,27.45
2022-12-22T07:40:51.674Z,27.35
2022-12-22T07:43:19.196Z,31.80
2022-12-22T07:45:47.344Z,27.50
2022-12-22T07:48:30.936Z,24.05
2022-12-22T07:51:02.667Z,27.40
2022-12-22T07:53:30.689Z,30.50
2022-12-22T07:56:02.938Z,26.40
2022-12-22T07:58:31.231Z,30.33
2022-12-22T08:01:00.347Z,35.72
2022-12-22T08:03:29.723Z,31.65
2022-12-22T08:05:57.837Z,34.35
2022-12-22T08:08:25.858Z,43.05
2022-12-22T08:10:53.864Z,36.55
2022-12-22T08:13:22.269Z,43.42
2022-12-22T08:15:50.326Z,39.38
2022-12-22T08:18:18.316Z,40.78
2022-12-22T08:20:51.833Z,40.80
2022-12-22T08:23:20.239Z,40.58
2022-12-22T08:25:50.064Z,42.88
2022-12-22T08:28:18.315Z,39.85
2022-12-22T08:30:46.598Z,46.25
2022-12-22T08:33:14.742Z,38.88
2022-12-22T08:35:43.348Z,40.65
2022-12-22T08:38:14.108Z,45.50
2022-12-22T08:40:43.943Z,43.88
2022-12-22T08:43:12.753Z,39.03
2022-12-22T08:45:41.930Z,40.75
2022-12-22T08:48:10.600Z,40.83
2022-12-22T08:50:38.846Z,43.03
2022-12-22T08:53:18.843Z,46.13
2022-12-22T08:55:57.666Z,48.70
2022-12-22T08:58:25.751Z,40.42
2022-12-22T09:00:53.805Z,41.97
2022-12-22T09:03:21.887Z,44.83
2022-12-22T09:05:49.947Z,41.25
2022-12-22T09:08:17.900Z,38.03
2022-12-22T09:10:46.356Z,41.22
2022-12-22T09:13:15.646Z,37.05
2022-12-22T09:15:43.730Z,40.65
2022-12-22T09:18:11.682Z,40.72
2022-12-22T09:20:39.670Z,40.28
2022-12-22T09:23:07.664Z,40.42
2022-12-22T09:25:36.030Z,35.50
2022-12-22T09:28:05.490Z,35.83
2022-12-22T09:30:34.828Z,38.00
2022-12-22T09:33:02.917Z,38.75
2022-12-22T09:35:30.979Z,36.58
2022-12-22T09:37:59.754Z,35.53
2022-12-22T09:40:28.145Z,35.72
2022-12-22T09:42:56.304Z,36.83
2022-12-22T09:45:24.526Z,34.17
2022-12-22T09:47:55.015Z,35.95
2022-12-22T09:50:25.237Z,33.97
2022-12-22T09:52:55.272Z,32.58
2022-12-22T09:55:33.875Z,32.53
2022-12-22T09:58:01.960Z,35.50
2022-12-22T10:00:30.285Z,35.75
2022-12-22T10:03:05.709Z,37.33
2022-12-22T10:05:39.289Z,35.72
2022-12-22T10:08:12.034Z,34.67
2022-12-22T10:10:40.447Z,36.85
2022-12-22T10:13:12.869Z,33.35
2022-12-22T10:18:13.622Z,32.53
2022-12-22T10:20:42.483Z,32.28
2022-12-22T10:23:18.892Z,30.35
2022-12-22T10:26:27.937Z,30.38
2022-12-22T10:28:52.222Z,31.13
2022-12-22T10:31:22.214Z,29.23
2022-12-22T10:33:53.877Z,32.25
2022-12-22T10:36:24.685Z,31.48
2022-12-22T10:38:58.724Z,33.77
2022-12-22T10:41:28.844Z,30.52
2022-12-22T10:43:59.057Z,32.33
2022-12-22T10:46:36.928Z,28.90
2022-12-22T10:49:21.521Z,32.22
2022-12-22T10:51:52.200Z,33.72
2022-12-22T10:54:33.950Z,28.42
2022-12-22T10:57:05.785Z,27.30
2022-12-22T10:59:34.806Z,29.60
2022-12-22T11:02:24.901Z,30.17
2022-12-22T11:04:55.360Z,29.98
2022-12-22T11:07:24.850Z,29.55
2022-12-22T11:09:52.975Z,29.83
2022-12-22T11:12:27.274Z,27.10
2022-12-22T11:15:01.591Z,25.67
2022-12-22T11:17:34.922Z,25.60
2022-12-22T11:20:27.962Z,26.15
2022-12-22T11:23:01.665Z,24.98
2022-12-22T11:25:37.142Z,25.52
2022-12-22T11:28:23.922Z,26.92
2022-12-22T11:31:00.574Z,29.10
2022-12-22T11:33:36.934Z,25.92
2022-12-22T11:36:09.764Z,26.20
2022-12-22T11:38:46.762Z,25.38
2022-12-22T11:41:26.064Z,26.85
2022-12-22T11:44:03.201Z,29.05
2022-12-22T11:46:35.911Z,30.95
2022-12-22T11:49:17.230Z,26.02
2022-12-22T11:52:06.255Z,25.23
2022-12-22T11:54:50.123Z,25.48
2022-12-22T11:57:27.711Z,23.23
2022-12-22T12:00:02.720Z,26.17
2022-12-22T12:03:14.113Z,28.50
2022-12-22T12:05:50.766Z,24.70
2022-12-22T12:08:29.475Z,25.73
2022-12-22T12:11:06.525Z,25.45
2022-12-22T12:13:41.112Z,24.25
2022-12-22T12:16:18.508Z,24.85
2022-12-22T12:19:04.712Z,27.38
2022-12-22T12:21:38.582Z,23.08
2022-12-22T12:24:26.127Z,28.23
2022-12-22T12:27:00.601Z,24.83
2022-12-22T12:29:29.700Z,21.15
2022-12-22T12:32:02.236Z,24.27
2022-12-22T12:34:33.311Z,25.25
2022-12-22T12:37:04.626Z,22.33
2022-12-22T12:39:39.052Z,29.30
2022-12-22T12:42:18.070Z,26.00
2022-12-22T12:44:47.195Z,28.35
2022-12-22T12:47:27.023Z,24.23
2022-12-22T12:50:03.369Z,23.05
2022-12-22T12:53:16.449Z,21.13
2022-12-22T12:56:02.996Z,20.40
2022-12-22T12:58:58.410Z,19.88
2022-12-22T13:01:57.494Z,21.30
2022-12-22T13:05:14.030Z,16.92
2022-12-22T13:08:11.286Z,17.27
2022-12-22T13:11:52.655Z,20.83
2022-12-22T13:14:51.997Z,17.85
2022-12-22T13:17:42.188Z,17.58
2022-12-22T13:20:14.375Z,16.33
2022-12-22T13:22:43.909Z,16.13
2022-12-22T13:25:14.751Z,17.23
2022-12-22T13:27:42.757Z,18.13
2022-12-22T13:30:16.797Z,18.63
2022-12-22T13:32:46.117Z,17.90
2022-12-22T13:35:30.845Z,20.70
2022-12-22T13:38:00.013Z,20.50
2022-12-22T13:40:30.671Z,22.48
2022-12-22T13:43:02.528Z,20.70
2022-12-22T13:45:34.715Z,22.60
2022-12-22T13:48:07.816Z,26.38
2022-12-22T13:50:38.561Z,24.27
2022-12-22T13:53:08.746Z,19.83
2022-12-22T13:55:37.268Z,22.02
2022-12-22T13:58:08.226Z,18.50
2022-12-22T14:00:37.595Z,19.50
2022-12-22T14:03:34.140Z,18.83
2022-12-22T14:06:02.741Z,22.85
2022-12-22T14:08:30.834Z,19.33
2022-12-22T14:10:58.838Z,22.95
2022-12-22T14:13:31.292Z,17.73
2022-12-22T14:16:05.623Z,24.23
2022-12-22T14:18:33.937Z,22.35
2022-12-22T14:21:02.378Z,18.48
2022-12-22T14:23:32.643Z,17.85
2022-12-22T14:26:01.847Z,17.80
2022-12-22T14:28:33.403Z,21.17
2022-12-22T14:31:04.001Z,15.57
2022-12-22T14:33:33.735Z,15.70
2022-12-22T14:36:16.330Z,15.55
2022-12-22T14:41:38.273Z,18.75
2022-12-22T14:44:06.537Z,19.70
2022-12-22T14:46:39.161Z,22.10
2022-12-22T14:49:14.266Z,20.92
2022-12-22T14:51:42.459Z,20.77
2022-12-22T14:54:19.975Z,21.13
2022-12-22T14:56:49.429Z,22.40
2022-12-22T14:59:26.260Z,25.77
2022-12-22T15:02:00.654Z,20.13
2022-12-22T15:04:29.319Z,21.55
2022-12-22T15:07:06.964Z,20.70
2022-12-22T15:10:13.762Z,19.58
2022-12-22T15:12:22.798Z,21.58
2022-12-22T15:14:50.815Z,22.50
2022-12-22T15:17:24.033Z,23.58
2022-12-22T15:22:20.865Z,26.10
2022-12-22T15:24:49.043Z,25.77
2022-12-22T15:27:17.022Z,25.38
2022-12-22T15:29:44.951Z,29.40
2022-12-22T15:32:13.925Z,27.10
2022-12-22T15:34:43.482Z,30.50
2022-12-22T15:37:12.826Z,29.05
2022-12-22T15:39:41.344Z,31.67
2022-12-22T15:42:09.355Z,34.05
2022-12-22T15:44:39.175Z,35.83
2022-12-22T15:47:09.562Z,35.00
2022-12-22T15:49:37.985Z,37.53
2022-12-22T15:52:07.838Z,34.97
2022-12-22T15:54:36.647Z,40.83
2022-12-22T15:57:04.773Z,35.60
2022-12-22T15:59:32.781Z,42.75
2022-12-22T16:02:02.167Z,36.83
2022-12-22T16:04:30.537Z,40.85
2022-12-22T16:06:59.791Z,43.03
2022-12-22T16:09:32.604Z,49.40
2022-12-22T16:12:00.866Z,52.70
2022-12-22T16:14:32.454Z,55.33
2022-12-22T16:17:03.308Z,52.30
2022-12-22T16:19:31.351Z,47.35
2022-12-22T16:21:59.305Z,52.72
2022-12-22T16:24:30.518Z,46.13
2022-12-22T16:26:59.096Z,44.05
2022-12-22T16:29:27.991Z,42.42
2022-12-22T16:32:17.601Z,45.15
2022-12-22T16:34:46.933Z,39.47
2022-12-22T16:37:14.879Z,40.65
2022-12-22T16:39:44.497Z,41.90
2022-12-22T16:45:01.683Z,40.08
2022-12-22T16:47:33.711Z,38.10
2022-12-22T16:50:02.596Z,40.17
2022-12-22T16:52:37.099Z,40.60
2022-12-22T16:55:14.699Z,44.40
2022-12-22T16:57:42.707Z,46.90
2022-12-22T17:00:17.697Z,45.20
2022-12-22T17:02:48.506Z,43.78
2022-12-22T17:05:25.202Z,51.35
2022-12-22T17:07:53.486Z,43.63
2022-12-22T17:10:23.513Z,50.15
2022-12-22T17:12:54.178Z,50.08
2022-12-22T17:15:23.955Z,51.70
2022-12-22T17:17:52.709Z,57.38
2022-12-22T17:20:22.876Z,58.65
2022-12-22T17:22:53.510Z,60.40
2022-12-22T17:25:26.090Z,60.15
2022-12-22T17:27:54.781Z,67.20
2022-12-22T17:30:24.938Z,68.68
2022-12-22T17:32:53.622Z,72.75
2022-12-22T17:35:24.824Z,82.72
2022-12-22T17:37:53.407Z,78.22
2022-12-22T17:40:26.539Z,82.55
2022-12-22T17:42:54.720Z,82.90
2022-12-22T17:45:23.080Z,97.05
2022-12-22T17:47:51.339Z,91.25
2022-12-22T17:50:20.944Z,88.13
2022-12-22T17:52:49.165Z,88.28
2022-12-22T17:55:49.914Z,87.13
2022-12-22T17:58:14.799Z,87.10
2022-12-22T18:00:43.117Z,85.13
2022-12-22T18:03:13.182Z,87.45
2022-12-22T18:05:43.367Z,82.75
2022-12-22T18:08:14.268Z,79.50
2022-12-22T18:10:42.826Z,86.18
2022-12-22T18:13:16.527Z,84.78
2022-12-22T18:15:44.717Z,83.85
2022-12-22T18:18:14.799Z,80.82
2022-12-22T18:20:43.225Z,68.90
2022-12-22T18:23:16.292Z,75.57
2022-12-22T18:25:44.526Z,70.65
2022-12-22T18:28:15.629Z,71.68
2022-12-22T18:30:44.279Z,74.25
2022-12-22T18:33:12.654Z,78.00
2022-12-22T18:35:40.998Z,77.03
2022-12-22T18:38:17.900Z,71.45
2022-12-22T18:40:46.037Z,69.22
2022-12-22T18:43:15.724Z,84.65
2022-12-22T18:45:43.782Z,69.75
2022-12-22T18:48:11.839Z,83.30
2022-12-22T18:50:40.870Z,79.55
2022-12-22T18:53:18.335Z,81.57
2022-12-22T18:55:46.604Z,70.60
2022-12-22T18:58:16.117Z,77.88
2022-12-22T19:00:44.596Z,86.65
2022-12-22T19:03:17.836Z,84.60
2022-12-22T19:05:47.614Z,83.28
2022-12-22T19:08:17.239Z,89.82
2022-12-22T19:10:49.192Z,92.03
2022-12-22T19:13:22.696Z,85.40
2022-12-22T19:15:52.527Z,83.35
2022-12-22T19:18:26.463Z,89.18
2022-12-22T19:20:55.690Z,95.40
2022-12-22T19:23:25.385Z,95.90
2022-12-22T19:25:55.810Z,105.95
2022-12-22T19:28:31.037Z,98.25
2022-12-22T19:30:59.485Z,101.18
2022-12-22T19:33:30.352Z,101.25
2022-12-22T19:35:59.059Z,109.85
2022-12-22T19:38:28.089Z,104.80
2022-12-22T19:41:00.135Z,101.20
2022-12-22T19:43:29.725Z,111.18
2022-12-22T19:45:58.188Z,95.57
2022-12-22T19:48:27.718Z,100.93
2022-12-22T19:50:56.132Z,101.68
2022-12-22T19:53:24.162Z,106.13
2022-12-22T19:55:54.070Z,108.32
2022-12-22T19:58:24.200Z,113.78
2022-12-22T20:00:54.603Z,114.90
2022-12-22T20:03:24.835Z,115.40
2022-12-22T20:05:53.011Z,107.28
2022-12-22T20:08:21.040Z,111.55
2022-12-22T20:10:54.475Z,108.13
2022-12-22T20:13:30.054Z,113.47
2022-12-22T20:15:59.573Z,117.72
2022-12-22T20:18:30.204Z,110.97
2022-12-22T20:21:02.423Z,109.03
2022-12-22T20:23:33.049Z,126.05
2022-12-22T20:26:04.077Z,119.15
2022-12-22T20:28:34.758Z,113.75
2022-12-22T20:31:05.404Z,112.35
2022-12-22T20:33:34.820Z,129.75
2022-12-22T20:36:03.623Z,121.07
2022-12-22T20:38:34.768Z,131.85
2022-12-22T20:41:03.563Z,135.27
2022-12-22T20:43:32.960Z,128.95
2022-12-22T20:46:04.879Z,133.98
2022-12-22T20:48:34.757Z,121.45
2022-12-22T20:51:04.729Z,128.57
2022-12-22T20:53:33.089Z,132.35
2022-12-22T20:56:01.813Z,118.97
2022-12-22T20:58:34.058Z,119.30
2022-12-22T21:03:31.565Z,112.78
2022-12-22T21:05:59.613Z,118.53
2022-12-22T21:08:27.787Z,113.70
2022-12-22T21:10:56.256Z,118.90
2022-12-22T21:13:24.267Z,114.35
2022-12-22T21:15:52.711Z,112.63
2022-12-22T21:18:22.780Z,114.10
2022-12-22T21:20:52.976Z,120.00
2022-12-22T21:23:21.136Z,127.53
2022-12-22T21:25:51.371Z,116.57
2022-12-22T21:28:24.730Z,116.50
2022-12-22T21:30:52.874Z,110.57
2022-12-22T21:33:20.878Z,106.80
2022-12-22T21:35:48.971Z,103.57
2022-12-22T21:38:20.235Z,102.55
2022-12-22T21:40:49.564Z,102.15
2022-12-22T21:43:18.038Z,106.78
2022-12-22T21:45:46.788Z,102.82
2022-12-22T21:48:18.654Z,110.90
2022-12-22T21:50:47.354Z,100.80
2022-12-22T21:53:21.514Z,100.00
2022-12-22T21:55:51.527Z,95.53
2022-12-22T21:58:19.524Z,105.07
2022-12-22T22:00:49.259Z,96.03
2022-12-22T22:03:17.528Z,107.13
2022-12-22T22:05:45.504Z,111.47
2022-12-22T22:08:13.939Z,98.28
2022-12-22T22:10:44.149Z,102.70
2022-12-22T22:13:15.986Z,88.03
2022-12-22T22:15:44.337Z,93.03
2022-12-22T22:18:16.580Z,91.32
2022-12-22T22:20:44.892Z,89.80
2022-12-22T22:23:14.519Z,88.50
2022-12-22T22:25:42.531Z,82.25
2022-12-22T22:28:11.452Z,83.35
2022-12-22T22:30:42.912Z,84.53
2022-12-22T22:33:11.509Z,75.40
2022-12-22T22:35:42.379Z,83.93
2022-12-22T22:38:11.996Z,82.82
2022-12-22T22:40:40.110Z,78.97
2022-12-22T22:43:08.138Z,74.05
2022-12-22T22:45:38.370Z,72.90
2022-12-22T22:48:11.051Z,68.25
2022-12-22T22:50:41.514Z,77.03
2022-12-22T22:53:09.654Z,66.70
2022-12-22T22:55:37.613Z,81.90
2022-12-22T22:58:05.763Z,75.38
2022-12-22T23:00:33.985Z,69.05
2022-12-22T23:03:02.049Z,69.55
2022-12-22T23:05:31.792Z,66.47
2022-12-22T23:07:59.895Z,61.72
2022-12-22T23:10:27.875Z,71.35
2022-12-22T23:12:55.903Z,63.33
2022-12-22T23:15:23.883Z,70.20
2022-12-22T23:17:52.100Z,62.17
2022-12-22T23:20:20.249Z,60.35
2022-12-22T23:22:49.557Z,64.03
2022-12-22T23:25:17.699Z,63.30
2022-12-22T23:27:45.709Z,57.38
2022-12-22T23:30:14.610Z,55.03
2022-12-22T23:32:42.689Z,53.90
2022-12-22T23:35:11.321Z,54.85
2022-12-22T23:37:39.319Z,56.25
2022-12-22T23:40:42.017Z,54.70
2022-12-22T23:42:58.300Z,52.00
2022-12-22T23:45:28.604Z,54.80
2022-12-22T23:47:56.742Z,50.85
2022-12-22T23:50:25.502Z,53.63
2022-12-22T23:52:53.833Z,53.55
2022-12-22T23:55:23.777Z,52.17
2022-12-22T23:57:53.161Z,54.20
